sensor_id;sensor_type;location;lat;lon;timestamp;P1;durP1;ratioP1;P2;durP2;ratioP2
70985;SDS011;58645;43.068;25.610;2022-12-07T00:01:07;26.13;;;8.63;;
70985;SDS011;58645;43.068;25.610;2022-12-07T00:03:35;23.88;;;8.10;;
70985;SDS011;58645;43.068;25.610;2022-12-07T00:06:02;27.63;;;9.13;;
70985;SDS011;58645;43.068;25.610;2022-12-07T00:08:28;24.90;;;9.18;;
70985;SDS011;58645;43.068;25.610;2022-12-07T00:10:58;21.38;;;8.13;;
70985;SDS011;58645;43.068;25.610;2022-12-07T00:13:26;22.45;;;8.43;;
70985;SDS011;58645;43.068;25.610;2022-12-07T00:15:52;24.02;;;8.57;;
70985;SDS011;58645;43.068;25.610;2022-12-07T00:18:18;22.90;;;8.10;;
70985;SDS011;58645;43.068;25.610;2022-12-07T00:20:43;21.83;;;7.78;;
70985;SDS011;58645;43.068;25.610;2022-12-07T00:23:09;23.70;;;8.93;;
70985;SDS011;58645;43.068;25.610;2022-12-07T00:25:35;20.45;;;8.88;;
70985;SDS011;58645;43.068;25.610;2022-12-07T00:28:00;22.17;;;8.73;;
70985;SDS011;58645;43.068;25.610;2022-12-07T00:30:26;22.63;;;8.88;;
70985;SDS011;58645;43.068;25.610;2022-12-07T00:32:52;25.23;;;9.60;;
70985;SDS011;58645;43.068;25.610;2022-12-07T00:35:17;27.13;;;10.23;;
70985;SDS011;58645;43.068;25.610;2022-12-07T00:37:43;27.70;;;9.07;;
70985;SDS011;58645;43.068;25.610;2022-12-07T00:40:09;27.00;;;9.63;;
70985;SDS011;58645;43.068;25.610;2022-12-07T00:42:35;25.92;;;9.07;;
70985;SDS011;58645;43.068;25.610;2022-12-07T00:45:01;34.08;;;13.90;;
70985;SDS011;58645;43.068;25.610;2022-12-07T00:47:26;34.10;;;13.45;;
70985;SDS011;58645;43.068;25.610;2022-12-07T00:49:52;31.38;;;11.95;;
70985;SDS011;58645;43.068;25.610;2022-12-07T00:52:18;25.98;;;10.32;;
70985;SDS011;58645;43.068;25.610;2022-12-07T00:54:43;26.27;;;9.63;;
70985;SDS011;58645;43.068;25.610;2022-12-07T00:57:09;22.92;;;9.55;;
70985;SDS011;58645;43.068;25.610;2022-12-07T00:59:35;52.92;;;19.00;;
70985;SDS011;58645;43.068;25.610;2022-12-07T01:02:01;50.17;;;19.58;;
70985;SDS011;58645;43.068;25.610;2022-12-07T01:04:26;45.38;;;17.88;;
70985;SDS011;58645;43.068;25.610;2022-12-07T01:06:52;36.22;;;14.23;;
70985;SDS011;58645;43.068;25.610;2022-12-07T01:09:18;27.58;;;11.27;;
70985;SDS011;58645;43.068;25.610;2022-12-07T01:11:43;30.52;;;10.57;;
70985;SDS011;58645;43.068;25.610;2022-12-07T01:14:09;26.38;;;9.77;;
70985;SDS011;58645;43.068;25.610;2022-12-07T01:16:35;30.33;;;10.38;;
70985;SDS011;58645;43.068;25.610;2022-12-07T01:19:01;25.13;;;9.25;;
70985;SDS011;58645;43.068;25.610;2022-12-07T01:21:30;24.98;;;8.65;;
70985;SDS011;58645;43.068;25.610;2022-12-07T01:24:00;23.95;;;8.93;;
70985;SDS011;58645;43.068;25.610;2022-12-07T01:26:27;27.35;;;9.73;;
70985;SDS011;58645;43.068;25.610;2022-12-07T01:28:53;24.92;;;10.40;;
70985;SDS011;58645;43.068;25.610;2022-12-07T01:31:21;26.95;;;10.63;;
70985;SDS011;58645;43.068;25.610;2022-12-07T01:33:49;23.95;;;9.70;;
70985;SDS011;58645;43.068;25.610;2022-12-07T01:38:49;26.45;;;9.82;;
70985;SDS011;58645;43.068;25.610;2022-12-07T01:41:17;30.27;;;11.40;;
70985;SDS011;58645;43.068;25.610;2022-12-07T01:46:28;26.90;;;9.82;;
70985;SDS011;58645;43.068;25.610;2022-12-07T01:48:54;21.98;;;8.57;;
70985;SDS011;58645;43.068;25.610;2022-12-07T01:51:20;28.10;;;9.70;;
70985;SDS011;58645;43.068;25.610;2022-12-07T01:53:45;26.92;;;10.15;;
70985;SDS011;58645;43.068;25.610;2022-12-07T01:56:14;29.13;;;10.60;;
70985;SDS011;58645;43.068;25.610;2022-12-07T01:58:43;27.58;;;11.80;;
70985;SDS011;58645;43.068;25.610;2022-12-07T02:01:10;29.85;;;11.23;;
70985;SDS011;58645;43.068;25.610;2022-12-07T02:03:38;34.65;;;11.82;;
70985;SDS011;58645;43.068;25.610;2022-12-07T02:06:06;27.30;;;10.68;;
70985;SDS011;58645;43.068;25.610;2022-12-07T02:08:33;32.78;;;12.45;;
70985;SDS011;58645;43.068;25.610;2022-12-07T02:11:00;27.27;;;10.65;;
70985;SDS011;58645;43.068;25.610;2022-12-07T02:13:29;30.30;;;11.63;;
70985;SDS011;58645;43.068;25.610;2022-12-07T02:32:10;25.77;;;8.98;;
70985;SDS011;58645;43.068;25.610;2022-12-07T02:37:20;26.25;;;9.70;;
70985;SDS011;58645;43.068;25.610;2022-12-07T02:45:53;30.30;;;11.45;;
70985;SDS011;58645;43.068;25.610;2022-12-07T02:48:23;32.58;;;10.88;;
70985;SDS011;58645;43.068;25.610;2022-12-07T02:53:29;32.30;;;9.32;;
70985;SDS011;58645;43.068;25.610;2022-12-07T02:55:56;40.88;;;11.05;;
70985;SDS011;58645;43.068;25.610;2022-12-07T03:03:52;32.90;;;9.65;;
70985;SDS011;58645;43.068;25.610;2022-12-07T03:06:36;39.53;;;10.43;;
70985;SDS011;58645;43.068;25.610;2022-12-07T03:12:34;42.33;;;11.75;;
70985;SDS011;58645;43.068;25.610;2022-12-07T03:15:01;65.65;;;12.57;;
70985;SDS011;58645;43.068;25.610;2022-12-07T03:17:33;34.10;;;10.80;;
70985;SDS011;58645;43.068;25.610;2022-12-07T03:20:02;39.78;;;12.45;;
70985;SDS011;58645;43.068;25.610;2022-12-07T03:22:31;50.28;;;12.45;;
70985;SDS011;58645;43.068;25.610;2022-12-07T03:25:03;51.97;;;11.23;;
70985;SDS011;58645;43.068;25.610;2022-12-07T03:28:16;62.67;;;12.45;;
70985;SDS011;58645;43.068;25.610;2022-12-07T03:30:31;40.83;;;11.10;;
70985;SDS011;58645;43.068;25.610;2022-12-07T03:33:12;39.83;;;10.73;;
70985;SDS011;58645;43.068;25.610;2022-12-07T03:38:49;68.10;;;11.15;;
70985;SDS011;58645;43.068;25.610;2022-12-07T03:41:43;75.32;;;11.95;;
70985;SDS011;58645;43.068;25.610;2022-12-07T03:44:10;43.55;;;10.52;;
70985;SDS011;58645;43.068;25.610;2022-12-07T03:49:23;47.85;;;11.05;;
70985;SDS011;58645;43.068;25.610;2022-12-07T03:54:56;208.05;;;17.67;;
70985;SDS011;58645;43.068;25.610;2022-12-07T03:57:29;97.07;;;11.90;;
70985;SDS011;58645;43.068;25.610;2022-12-07T03:59:58;127.45;;;13.30;;
70985;SDS011;58645;43.068;25.610;2022-12-07T04:04:52;36.85;;;9.15;;
70985;SDS011;58645;43.068;25.610;2022-12-07T04:07:18;95.38;;;11.48;;
70985;SDS011;58645;43.068;25.610;2022-12-07T04:09:44;46.05;;;10.25;;
70985;SDS011;58645;43.068;25.610;2022-12-07T04:12:09;48.38;;;10.52;;
70985;SDS011;58645;43.068;25.610;2022-12-07T04:14:35;58.95;;;10.93;;
70985;SDS011;58645;43.068;25.610;2022-12-07T04:17:01;74.60;;;10.77;;
70985;SDS011;58645;43.068;25.610;2022-12-07T04:19:28;51.63;;;11.15;;
70985;SDS011;58645;43.068;25.610;2022-12-07T04:21:55;37.88;;;10.85;;
70985;SDS011;58645;43.068;25.610;2022-12-07T04:24:22;36.80;;;9.25;;
70985;SDS011;58645;43.068;25.610;2022-12-07T04:26:48;34.20;;;9.90;;
70985;SDS011;58645;43.068;25.610;2022-12-07T04:29:15;35.30;;;10.90;;
70985;SDS011;58645;43.068;25.610;2022-12-07T04:31:41;27.77;;;10.13;;
70985;SDS011;58645;43.068;25.610;2022-12-07T04:34:08;27.52;;;9.90;;
70985;SDS011;58645;43.068;25.610;2022-12-07T04:36:34;27.55;;;9.93;;
70985;SDS011;58645;43.068;25.610;2022-12-07T04:39:00;31.23;;;10.95;;
70985;SDS011;58645;43.068;25.610;2022-12-07T04:41:26;29.50;;;10.65;;
70985;SDS011;58645;43.068;25.610;2022-12-07T04:43:56;25.42;;;9.52;;
70985;SDS011;58645;43.068;25.610;2022-12-07T04:46:24;27.08;;;10.07;;
70985;SDS011;58645;43.068;25.610;2022-12-07T04:48:50;28.13;;;10.40;;
70985;SDS011;58645;43.068;25.610;2022-12-07T04:51:18;25.63;;;10.55;;
70985;SDS011;58645;43.068;25.610;2022-12-07T04:53:46;24.83;;;10.27;;
70985;SDS011;58645;43.068;25.610;2022-12-07T04:56:12;25.98;;;9.63;;
70985;SDS011;58645;43.068;25.610;2022-12-07T04:58:38;24.20;;;10.40;;
70985;SDS011;58645;43.068;25.610;2022-12-07T05:01:03;26.08;;;10.27;;
70985;SDS011;58645;43.068;25.610;2022-12-07T05:03:29;22.48;;;9.18;;
70985;SDS011;58645;43.068;25.610;2022-12-07T05:05:55;20.60;;;7.95;;
70985;SDS011;58645;43.068;25.610;2022-12-07T05:08:21;24.60;;;10.32;;
70985;SDS011;58645;43.068;25.610;2022-12-07T05:10:48;26.35;;;10.73;;
70985;SDS011;58645;43.068;25.610;2022-12-07T05:13:14;23.95;;;9.43;;
70985;SDS011;58645;43.068;25.610;2022-12-07T05:15:40;23.20;;;8.75;;
70985;SDS011;58645;43.068;25.610;2022-12-07T05:18:05;22.33;;;10.68;;
70985;SDS011;58645;43.068;25.610;2022-12-07T05:20:31;29.70;;;10.77;;
70985;SDS011;58645;43.068;25.610;2022-12-07T05:22:57;25.02;;;9.85;;
70985;SDS011;58645;43.068;25.610;2022-12-07T05:25:23;24.90;;;10.23;;
70985;SDS011;58645;43.068;25.610;2022-12-07T05:27:49;24.77;;;9.73;;
70985;SDS011;58645;43.068;25.610;2022-12-07T05:30:15;25.42;;;9.82;;
70985;SDS011;58645;43.068;25.610;2022-12-07T05:32:41;25.45;;;10.13;;
70985;SDS011;58645;43.068;25.610;2022-12-07T05:35:06;26.80;;;10.93;;
70985;SDS011;58645;43.068;25.610;2022-12-07T05:37:32;31.50;;;11.38;;
70985;SDS011;58645;43.068;25.610;2022-12-07T05:39:58;28.90;;;10.50;;
70985;SDS011;58645;43.068;25.610;2022-12-07T05:42:24;28.52;;;10.95;;
70985;SDS011;58645;43.068;25.610;2022-12-07T05:44:50;24.42;;;10.52;;
70985;SDS011;58645;43.068;25.610;2022-12-07T05:47:15;26.60;;;11.07;;
70985;SDS011;58645;43.068;25.610;2022-12-07T05:49:41;28.85;;;10.73;;
70985;SDS011;58645;43.068;25.610;2022-12-07T05:52:07;35.38;;;11.85;;
70985;SDS011;58645;43.068;25.610;2022-12-07T05:54:34;25.85;;;10.30;;
70985;SDS011;58645;43.068;25.610;2022-12-07T05:56:59;33.85;;;11.60;;
70985;SDS011;58645;43.068;25.610;2022-12-07T05:59:28;27.83;;;11.38;;
70985;SDS011;58645;43.068;25.610;2022-12-07T06:01:58;29.40;;;11.52;;
70985;SDS011;58645;43.068;25.610;2022-12-07T06:04:26;29.33;;;11.73;;
70985;SDS011;58645;43.068;25.610;2022-12-07T06:06:53;33.47;;;11.18;;
70985;SDS011;58645;43.068;25.610;2022-12-07T06:09:20;34.40;;;11.98;;
70985;SDS011;58645;43.068;25.610;2022-12-07T06:11:47;30.80;;;10.45;;
70985;SDS011;58645;43.068;25.610;2022-12-07T06:14:32;28.52;;;11.02;;
70985;SDS011;58645;43.068;25.610;2022-12-07T06:16:58;35.38;;;12.38;;
70985;SDS011;58645;43.068;25.610;2022-12-07T06:19:24;40.00;;;12.48;;
70985;SDS011;58645;43.068;25.610;2022-12-07T06:21:50;28.73;;;11.82;;
70985;SDS011;58645;43.068;25.610;2022-12-07T06:24:16;34.70;;;11.63;;
70985;SDS011;58645;43.068;25.610;2022-12-07T06:26:42;34.70;;;12.00;;
70985;SDS011;58645;43.068;25.610;2022-12-07T06:29:08;31.05;;;12.07;;
70985;SDS011;58645;43.068;25.610;2022-12-07T06:31:35;32.28;;;12.25;;
70985;SDS011;58645;43.068;25.610;2022-12-07T06:34:02;27.65;;;11.18;;
70985;SDS011;58645;43.068;25.610;2022-12-07T06:36:33;30.88;;;11.95;;
70985;SDS011;58645;43.068;25.610;2022-12-07T06:39:01;31.67;;;11.15;;
70985;SDS011;58645;43.068;25.610;2022-12-07T06:41:27;25.98;;;10.70;;
70985;SDS011;58645;43.068;25.610;2022-12-07T06:43:53;23.02;;;9.70;;
70985;SDS011;58645;43.068;25.610;2022-12-07T06:46:19;21.42;;;8.60;;
70985;SDS011;58645;43.068;25.610;2022-12-07T06:48:49;17.52;;;8.40;;
70985;SDS011;58645;43.068;25.610;2022-12-07T06:51:16;18.77;;;7.70;;
70985;SDS011;58645;43.068;25.610;2022-12-07T06:53:43;22.17;;;9.40;;
70985;SDS011;58645;43.068;25.610;2022-12-07T06:56:08;18.85;;;7.55;;
70985;SDS011;58645;43.068;25.610;2022-12-07T06:58:34;16.35;;;7.10;;
70985;SDS011;58645;43.068;25.610;2022-12-07T07:01:00;19.63;;;8.60;;
70985;SDS011;58645;43.068;25.610;2022-12-07T07:03:26;19.42;;;9.57;;
70985;SDS011;58645;43.068;25.610;2022-12-07T07:05:52;20.95;;;8.77;;
70985;SDS011;58645;43.068;25.610;2022-12-07T07:08:17;19.83;;;9.77;;
70985;SDS011;58645;43.068;25.610;2022-12-07T07:10:46;22.48;;;9.95;;
70985;SDS011;58645;43.068;25.610;2022-12-07T07:13:12;20.48;;;9.43;;
70985;SDS011;58645;43.068;25.610;2022-12-07T07:15:38;22.70;;;10.50;;
70985;SDS011;58645;43.068;25.610;2022-12-07T07:18:04;28.52;;;13.10;;
70985;SDS011;58645;43.068;25.610;2022-12-07T07:20:29;28.58;;;12.75;;
70985;SDS011;58645;43.068;25.610;2022-12-07T07:22:55;25.15;;;12.50;;
70985;SDS011;58645;43.068;25.610;2022-12-07T07:25:21;26.92;;;13.60;;
70985;SDS011;58645;43.068;25.610;2022-12-07T07:27:47;32.38;;;14.63;;
70985;SDS011;58645;43.068;25.610;2022-12-07T07:30:13;32.88;;;14.18;;
70985;SDS011;58645;43.068;25.610;2022-12-07T07:32:40;30.70;;;14.90;;
70985;SDS011;58645;43.068;25.610;2022-12-07T07:35:09;26.30;;;13.23;;
70985;SDS011;58645;43.068;25.610;2022-12-07T07:37:34;34.25;;;14.63;;
70985;SDS011;58645;43.068;25.610;2022-12-07T07:40:00;27.40;;;13.25;;
70985;SDS011;58645;43.068;25.610;2022-12-07T07:42:29;27.52;;;14.15;;
70985;SDS011;58645;43.068;25.610;2022-12-07T07:44:55;31.98;;;15.23;;
70985;SDS011;58645;43.068;25.610;2022-12-07T07:47:21;28.13;;;13.50;;
70985;SDS011;58645;43.068;25.610;2022-12-07T07:49:47;28.92;;;14.50;;
70985;SDS011;58645;43.068;25.610;2022-12-07T07:52:13;28.27;;;13.20;;
70985;SDS011;58645;43.068;25.610;2022-12-07T07:54:38;27.08;;;14.38;;
70985;SDS011;58645;43.068;25.610;2022-12-07T07:57:04;26.55;;;13.48;;
70985;SDS011;58645;43.068;25.610;2022-12-07T07:59:30;27.77;;;13.77;;
70985;SDS011;58645;43.068;25.610;2022-12-07T08:01:55;30.00;;;14.15;;
70985;SDS011;58645;43.068;25.610;2022-12-07T08:04:21;31.17;;;14.05;;
70985;SDS011;58645;43.068;25.610;2022-12-07T08:06:47;27.40;;;14.35;;
70985;SDS011;58645;43.068;25.610;2022-12-07T08:09:13;28.92;;;13.18;;
70985;SDS011;58645;43.068;25.610;2022-12-07T08:11:38;33.95;;;15.70;;
70985;SDS011;58645;43.068;25.610;2022-12-07T08:14:04;30.92;;;14.95;;
70985;SDS011;58645;43.068;25.610;2022-12-07T08:16:30;27.33;;;13.55;;
70985;SDS011;58645;43.068;25.610;2022-12-07T08:18:56;27.15;;;13.27;;
70985;SDS011;58645;43.068;25.610;2022-12-07T08:21:22;21.13;;;11.23;;
70985;SDS011;58645;43.068;25.610;2022-12-07T08:23:48;23.00;;;12.63;;
70985;SDS011;58645;43.068;25.610;2022-12-07T08:26:15;20.02;;;10.73;;
70985;SDS011;58645;43.068;25.610;2022-12-07T08:28:41;27.83;;;14.25;;
70985;SDS011;58645;43.068;25.610;2022-12-07T08:31:08;27.25;;;13.77;;
70985;SDS011;58645;43.068;25.610;2022-12-07T08:33:36;22.55;;;11.90;;
70985;SDS011;58645;43.068;25.610;2022-12-07T08:36:06;21.00;;;11.52;;
70985;SDS011;58645;43.068;25.610;2022-12-07T08:38:35;25.33;;;12.95;;
70985;SDS011;58645;43.068;25.610;2022-12-07T08:43:27;22.77;;;12.57;;
70985;SDS011;58645;43.068;25.610;2022-12-07T08:46:00;21.98;;;11.05;;
70985;SDS011;58645;43.068;25.610;2022-12-07T08:48:40;20.40;;;10.40;;
70985;SDS011;58645;43.068;25.610;2022-12-07T08:51:09;19.75;;;10.55;;
70985;SDS011;58645;43.068;25.610;2022-12-07T08:53:36;20.27;;;10.18;;
70985;SDS011;58645;43.068;25.610;2022-12-07T08:56:03;19.15;;;10.43;;
70985;SDS011;58645;43.068;25.610;2022-12-07T09:00:55;20.95;;;10.68;;
70985;SDS011;58645;43.068;25.610;2022-12-07T09:03:21;20.08;;;10.07;;
70985;SDS011;58645;43.068;25.610;2022-12-07T09:05:47;19.17;;;9.13;;
70985;SDS011;58645;43.068;25.610;2022-12-07T09:08:13;16.40;;;8.63;;
70985;SDS011;58645;43.068;25.610;2022-12-07T09:10:41;14.10;;;8.27;;
70985;SDS011;58645;43.068;25.610;2022-12-07T09:13:07;15.00;;;8.23;;
70985;SDS011;58645;43.068;25.610;2022-12-07T09:15:32;13.85;;;8.65;;
70985;SDS011;58645;43.068;25.610;2022-12-07T09:17:58;17.02;;;9.57;;
70985;SDS011;58645;43.068;25.610;2022-12-07T09:20:24;20.70;;;10.48;;
70985;SDS011;58645;43.068;25.610;2022-12-07T09:22:50;20.25;;;10.50;;
70985;SDS011;58645;43.068;25.610;2022-12-07T09:25:18;24.33;;;11.45;;
70985;SDS011;58645;43.068;25.610;2022-12-07T09:27:59;22.40;;;10.57;;
70985;SDS011;58645;43.068;25.610;2022-12-07T09:30:47;18.40;;;10.77;;
70985;SDS011;58645;43.068;25.610;2022-12-07T09:33:13;23.20;;;11.63;;
70985;SDS011;58645;43.068;25.610;2022-12-07T09:38:15;18.85;;;11.20;;
70985;SDS011;58645;43.068;25.610;2022-12-07T09:40:42;20.35;;;11.23;;
70985;SDS011;58645;43.068;25.610;2022-12-07T09:43:13;18.88;;;11.90;;
70985;SDS011;58645;43.068;25.610;2022-12-07T09:45:53;26.80;;;13.57;;
70985;SDS011;58645;43.068;25.610;2022-12-07T09:48:21;20.27;;;11.68;;
70985;SDS011;58645;43.068;25.610;2022-12-07T09:50:53;24.40;;;11.60;;
70985;SDS011;58645;43.068;25.610;2022-12-07T09:53:26;24.48;;;13.38;;
70985;SDS011;58645;43.068;25.610;2022-12-07T09:55:57;24.40;;;13.55;;
70985;SDS011;58645;43.068;25.610;2022-12-07T09:58:24;22.42;;;12.07;;
70985;SDS011;58645;43.068;25.610;2022-12-07T10:00:53;19.90;;;12.25;;
70985;SDS011;58645;43.068;25.610;2022-12-07T10:03:23;23.38;;;12.35;;
70985;SDS011;58645;43.068;25.610;2022-12-07T10:05:51;21.52;;;11.98;;
70985;SDS011;58645;43.068;25.610;2022-12-07T10:08:17;21.08;;;12.13;;
70985;SDS011;58645;43.068;25.610;2022-12-07T10:10:55;22.17;;;11.50;;
70985;SDS011;58645;43.068;25.610;2022-12-07T10:13:39;18.65;;;10.57;;
70985;SDS011;58645;43.068;25.610;2022-12-07T10:16:27;18.27;;;10.75;;
70985;SDS011;58645;43.068;25.610;2022-12-07T10:18:57;22.92;;;11.70;;
70985;SDS011;58645;43.068;25.610;2022-12-07T10:24:25;17.77;;;10.85;;
70985;SDS011;58645;43.068;25.610;2022-12-07T10:26:51;17.08;;;8.93;;
70985;SDS011;58645;43.068;25.610;2022-12-07T10:34:50;18.90;;;9.63;;
70985;SDS011;58645;43.068;25.610;2022-12-07T10:37:39;16.30;;;8.77;;
70985;SDS011;58645;43.068;25.610;2022-12-07T10:40:18;14.93;;;8.52;;
70985;SDS011;58645;43.068;25.610;2022-12-07T10:42:59;15.90;;;8.68;;
70985;SDS011;58645;43.068;25.610;2022-12-07T10:45:30;25.15;;;14.25;;
70985;SDS011;58645;43.068;25.610;2022-12-07T11:01:14;15.95;;;8.90;;
70985;SDS011;58645;43.068;25.610;2022-12-07T11:04:10;20.23;;;10.23;;
70985;SDS011;58645;43.068;25.610;2022-12-07T11:26:23;21.23;;;11.73;;
70985;SDS011;58645;43.068;25.610;2022-12-07T11:31:50;25.60;;;14.13;;
70985;SDS011;58645;43.068;25.610;2022-12-07T11:34:37;24.65;;;12.27;;
70985;SDS011;58645;43.068;25.610;2022-12-07T11:37:25;28.05;;;12.88;;
70985;SDS011;58645;43.068;25.610;2022-12-07T11:40:00;24.25;;;12.02;;
70985;SDS011;58645;43.068;25.610;2022-12-07T11:42:30;28.55;;;12.93;;
70985;SDS011;58645;43.068;25.610;2022-12-07T11:45:15;20.25;;;11.77;;
70985;SDS011;58645;43.068;25.610;2022-12-07T11:48:06;23.85;;;11.75;;
70985;SDS011;58645;43.068;25.610;2022-12-07T11:50:36;22.38;;;11.80;;
70985;SDS011;58645;43.068;25.610;2022-12-07T11:58:18;22.75;;;12.02;;
70985;SDS011;58645;43.068;25.610;2022-12-07T12:01:08;25.65;;;12.75;;
70985;SDS011;58645;43.068;25.610;2022-12-07T12:03:49;20.17;;;10.85;;
70985;SDS011;58645;43.068;25.610;2022-12-07T12:06:16;23.25;;;11.07;;
70985;SDS011;58645;43.068;25.610;2022-12-07T12:09:05;22.13;;;10.68;;
70985;SDS011;58645;43.068;25.610;2022-12-07T12:14:16;23.65;;;11.48;;
70985;SDS011;58645;43.068;25.610;2022-12-07T12:19:40;19.60;;;10.18;;
70985;SDS011;58645;43.068;25.610;2022-12-07T12:24:37;22.45;;;10.40;;
70985;SDS011;58645;43.068;25.610;2022-12-07T12:27:06;20.83;;;11.18;;
70985;SDS011;58645;43.068;25.610;2022-12-07T12:29:50;20.45;;;10.30;;
70985;SDS011;58645;43.068;25.610;2022-12-07T12:32:20;21.15;;;10.18;;
70985;SDS011;58645;43.068;25.610;2022-12-07T12:42:56;18.10;;;9.50;;
70985;SDS011;58645;43.068;25.610;2022-12-07T12:45:27;18.90;;;8.93;;
70985;SDS011;58645;43.068;25.610;2022-12-07T12:48:00;18.45;;;8.77;;
70985;SDS011;58645;43.068;25.610;2022-12-07T12:50:49;13.20;;;6.80;;
70985;SDS011;58645;43.068;25.610;2022-12-07T12:53:56;13.63;;;7.38;;
70985;SDS011;58645;43.068;25.610;2022-12-07T12:56:40;16.85;;;8.27;;
70985;SDS011;58645;43.068;25.610;2022-12-07T12:59:22;14.35;;;6.97;;
70985;SDS011;58645;43.068;25.610;2022-12-07T13:01:56;12.15;;;5.97;;
70985;SDS011;58645;43.068;25.610;2022-12-07T13:04:38;12.15;;;6.35;;
70985;SDS011;58645;43.068;25.610;2022-12-07T13:10:18;20.23;;;9.35;;
70985;SDS011;58645;43.068;25.610;2022-12-07T13:15:34;22.85;;;12.25;;
70985;SDS011;58645;43.068;25.610;2022-12-07T13:20:49;17.55;;;8.70;;
70985;SDS011;58645;43.068;25.610;2022-12-07T13:23:26;20.17;;;8.70;;
70985;SDS011;58645;43.068;25.610;2022-12-07T13:28:30;17.83;;;9.18;;
70985;SDS011;58645;43.068;25.610;2022-12-07T13:31:14;16.08;;;8.30;;
70985;SDS011;58645;43.068;25.610;2022-12-07T13:33:55;14.98;;;7.90;;
70985;SDS011;58645;43.068;25.610;2022-12-07T13:38:52;12.15;;;7.43;;
70985;SDS011;58645;43.068;25.610;2022-12-07T13:41:19;14.40;;;7.93;;
70985;SDS011;58645;43.068;25.610;2022-12-07T13:44:00;16.77;;;8.55;;
70985;SDS011;58645;43.068;25.610;2022-12-07T13:49:21;13.80;;;7.45;;
70985;SDS011;58645;43.068;25.610;2022-12-07T13:51:52;22.60;;;12.27;;
70985;SDS011;58645;43.068;25.610;2022-12-07T13:54:19;32.30;;;13.82;;
70985;SDS011;58645;43.068;25.610;2022-12-07T13:56:50;27.05;;;13.95;;
70985;SDS011;58645;43.068;25.610;2022-12-07T13:59:21;30.40;;;14.15;;
70985;SDS011;58645;43.068;25.610;2022-12-07T14:01:49;33.88;;;14.80;;
70985;SDS011;58645;43.068;25.610;2022-12-07T14:04:32;38.22;;;15.15;;
70985;SDS011;58645;43.068;25.610;2022-12-07T14:12:26;32.80;;;16.77;;
70985;SDS011;58645;43.068;25.610;2022-12-07T14:14:53;34.75;;;17.25;;
70985;SDS011;58645;43.068;25.610;2022-12-07T14:17:21;38.95;;;18.23;;
70985;SDS011;58645;43.068;25.610;2022-12-07T14:19:56;34.13;;;16.75;;
70985;SDS011;58645;43.068;25.610;2022-12-07T14:24:59;33.20;;;16.17;;
70985;SDS011;58645;43.068;25.610;2022-12-07T14:27:38;31.98;;;16.42;;
70985;SDS011;58645;43.068;25.610;2022-12-07T14:30:04;36.35;;;17.40;;
70985;SDS011;58645;43.068;25.610;2022-12-07T14:35:08;33.58;;;16.92;;
70985;SDS011;58645;43.068;25.610;2022-12-07T14:37:36;36.67;;;16.40;;
70985;SDS011;58645;43.068;25.610;2022-12-07T14:40:03;33.03;;;17.75;;
70985;SDS011;58645;43.068;25.610;2022-12-07T14:42:30;29.05;;;16.10;;
70985;SDS011;58645;43.068;25.610;2022-12-07T14:44:57;30.58;;;14.27;;
70985;SDS011;58645;43.068;25.610;2022-12-07T14:47:24;33.28;;;17.17;;
70985;SDS011;58645;43.068;25.610;2022-12-07T14:49:51;35.78;;;17.17;;
70985;SDS011;58645;43.068;25.610;2022-12-07T14:52:18;38.08;;;16.98;;
70985;SDS011;58645;43.068;25.610;2022-12-07T14:54:46;32.03;;;16.65;;
70985;SDS011;58645;43.068;25.610;2022-12-07T14:57:12;38.00;;;17.98;;
70985;SDS011;58645;43.068;25.610;2022-12-07T14:59:38;35.80;;;16.63;;
70985;SDS011;58645;43.068;25.610;2022-12-07T15:02:04;41.60;;;17.23;;
70985;SDS011;58645;43.068;25.610;2022-12-07T15:04:31;34.58;;;16.75;;
70985;SDS011;58645;43.068;25.610;2022-12-07T15:07:01;33.22;;;17.20;;
70985;SDS011;58645;43.068;25.610;2022-12-07T15:09:28;34.22;;;15.77;;
70985;SDS011;58645;43.068;25.610;2022-12-07T15:11:54;45.08;;;20.58;;
70985;SDS011;58645;43.068;25.610;2022-12-07T15:14:19;42.40;;;17.50;;
70985;SDS011;58645;43.068;25.610;2022-12-07T15:16:45;35.55;;;18.45;;
70985;SDS011;58645;43.068;25.610;2022-12-07T15:19:15;44.85;;;21.42;;
70985;SDS011;58645;43.068;25.610;2022-12-07T15:21:48;36.00;;;15.75;;
70985;SDS011;58645;43.068;25.610;2022-12-07T15:24:14;37.83;;;17.25;;
70985;SDS011;58645;43.068;25.610;2022-12-07T15:26:40;31.52;;;16.38;;
70985;SDS011;58645;43.068;25.610;2022-12-07T15:29:06;37.60;;;16.98;;
70985;SDS011;58645;43.068;25.610;2022-12-07T15:31:33;37.00;;;17.80;;
70985;SDS011;58645;43.068;25.610;2022-12-07T15:33:59;39.13;;;18.25;;
70985;SDS011;58645;43.068;25.610;2022-12-07T15:36:26;40.75;;;19.00;;
70985;SDS011;58645;43.068;25.610;2022-12-07T15:38:54;36.38;;;18.48;;
70985;SDS011;58645;43.068;25.610;2022-12-07T15:41:20;51.08;;;24.65;;
70985;SDS011;58645;43.068;25.610;2022-12-07T15:43:46;45.25;;;22.15;;
70985;SDS011;58645;43.068;25.610;2022-12-07T15:46:31;44.20;;;19.98;;
70985;SDS011;58645;43.068;25.610;2022-12-07T15:51:23;46.72;;;24.10;;
70985;SDS011;58645;43.068;25.610;2022-12-07T15:53:49;51.25;;;25.73;;
70985;SDS011;58645;43.068;25.610;2022-12-07T15:56:15;49.03;;;25.15;;
70985;SDS011;58645;43.068;25.610;2022-12-07T15:58:41;51.35;;;23.58;;
70985;SDS011;58645;43.068;25.610;2022-12-07T16:01:10;46.53;;;21.73;;
70985;SDS011;58645;43.068;25.610;2022-12-07T16:03:42;45.85;;;20.48;;
70985;SDS011;58645;43.068;25.610;2022-12-07T16:06:08;40.03;;;17.83;;
70985;SDS011;58645;43.068;25.610;2022-12-07T16:08:35;40.33;;;18.35;;
70985;SDS011;58645;43.068;25.610;2022-12-07T16:11:04;39.58;;;20.48;;
70985;SDS011;58645;43.068;25.610;2022-12-07T16:13:33;44.63;;;22.80;;
70985;SDS011;58645;43.068;25.610;2022-12-07T16:16:02;47.38;;;23.05;;
70985;SDS011;58645;43.068;25.610;2022-12-07T16:18:33;44.40;;;23.10;;
70985;SDS011;58645;43.068;25.610;2022-12-07T16:20:59;49.58;;;23.70;;
70985;SDS011;58645;43.068;25.610;2022-12-07T16:23:25;47.33;;;23.75;;
70985;SDS011;58645;43.068;25.610;2022-12-07T16:25:51;47.97;;;24.42;;
70985;SDS011;58645;43.068;25.610;2022-12-07T16:28:17;45.60;;;21.73;;
70985;SDS011;58645;43.068;25.610;2022-12-07T16:30:42;48.20;;;21.92;;
70985;SDS011;58645;43.068;25.610;2022-12-07T16:33:10;45.55;;;22.00;;
70985;SDS011;58645;43.068;25.610;2022-12-07T16:35:38;45.33;;;21.70;;
70985;SDS011;58645;43.068;25.610;2022-12-07T16:38:06;50.08;;;22.65;;
70985;SDS011;58645;43.068;25.610;2022-12-07T16:40:32;44.75;;;22.20;;
70985;SDS011;58645;43.068;25.610;2022-12-07T16:42:57;56.05;;;26.20;;
70985;SDS011;58645;43.068;25.610;2022-12-07T16:45:23;52.20;;;26.33;;
70985;SDS011;58645;43.068;25.610;2022-12-07T16:47:49;49.70;;;22.35;;
70985;SDS011;58645;43.068;25.610;2022-12-07T16:50:15;52.95;;;26.98;;
70985;SDS011;58645;43.068;25.610;2022-12-07T16:52:41;49.80;;;24.52;;
70985;SDS011;58645;43.068;25.610;2022-12-07T16:55:06;50.00;;;24.05;;
70985;SDS011;58645;43.068;25.610;2022-12-07T16:57:32;54.35;;;24.35;;